createdAt,value
2018-12-23T00:02:14.853Z,8.90
2018-12-23T00:04:42.946Z,8.90
2018-12-23T00:07:11.031Z,8.90
2018-12-23T00:09:39.140Z,8.90
2018-12-23T00:12:07.246Z,8.90
2018-12-23T00:14:35.338Z,8.90
2018-12-23T00:17:03.463Z,9.00
2018-12-23T00:19:31.587Z,9.00
2018-12-23T00:21:59.698Z,9.10
2018-12-23T00:24:27.822Z,9.10
2018-12-23T00:26:55.906Z,9.00
2018-12-23T00:29:23.997Z,8.90
2018-12-23T00:31:52.116Z,8.80
2018-12-23T00:34:20.256Z,8.80
2018-12-23T00:36:48.393Z,8.90
2018-12-23T00:39:16.479Z,8.90
2018-12-23T00:41:44.565Z,8.80
2018-12-23T00:44:12.664Z,8.80
2018-12-23T00:46:41.687Z,8.90
2018-12-23T00:49:10.507Z,8.90
2018-12-23T00:51:38.784Z,8.90
2018-12-23T00:54:06.934Z,8.80
2018-12-23T00:56:34.999Z,8.80
2018-12-23T00:59:03.085Z,8.80
2018-12-23T01:01:32.487Z,8.90
2018-12-23T01:04:00.586Z,8.90
2018-12-23T01:06:28.679Z,8.90
2018-12-23T01:08:56.835Z,8.90
2018-12-23T01:11:24.879Z,8.80
2018-12-23T01:13:53.079Z,8.90
2018-12-23T01:16:21.125Z,9.00
2018-12-23T01:18:49.232Z,9.00
2018-12-23T01:21:17.410Z,9.00
2018-12-23T01:23:45.491Z,9.00
2018-12-23T01:26:13.577Z,8.90
2018-12-23T01:28:41.647Z,8.90
2018-12-23T01:31:09.738Z,9.00
2018-12-23T01:33:38.772Z,9.00
2018-12-23T01:36:06.838Z,8.80
2018-12-23T01:38:34.915Z,8.80
2018-12-23T01:41:04.426Z,8.80
2018-12-23T01:43:33.299Z,8.80
2018-12-23T01:46:01.364Z,8.90
2018-12-23T01:48:29.467Z,8.90
2018-12-23T01:50:57.542Z,8.80
2018-12-23T01:53:25.616Z,8.80
2018-12-23T01:55:53.727Z,8.90
2018-12-23T01:58:21.833Z,9.10
2018-12-23T02:00:49.911Z,9.10
2018-12-23T02:03:18.004Z,9.00
2018-12-23T02:05:46.404Z,9.00
2018-12-23T02:08:14.575Z,9.00
2018-12-23T02:10:42.642Z,8.90
2018-12-23T02:13:10.812Z,8.90
2018-12-23T02:15:38.893Z,8.90
2018-12-23T02:18:06.962Z,8.90
2018-12-23T02:20:36.738Z,8.80
2018-12-23T02:23:04.851Z,8.90
2018-12-23T02:25:33.087Z,8.90
2018-12-23T02:28:01.163Z,9.00
2018-12-23T02:30:29.242Z,9.10
2018-12-23T02:32:57.502Z,9.00
2018-12-23T02:35:25.614Z,8.90
2018-12-23T02:37:53.705Z,9.00
2018-12-23T02:40:21.863Z,9.00
2018-12-23T02:42:50.524Z,9.00
2018-12-23T02:45:18.678Z,9.00
2018-12-23T02:47:46.759Z,9.00
2018-12-23T02:50:14.848Z,9.00
2018-12-23T02:52:42.894Z,9.00
2018-12-23T02:55:10.978Z,8.90
2018-12-23T02:57:39.142Z,8.90
2018-12-23T03:00:07.310Z,9.00
2018-12-23T03:02:35.385Z,9.00
2018-12-23T03:05:04.040Z,9.00
2018-12-23T03:07:32.118Z,9.00
2018-12-23T03:10:00.198Z,9.00
2018-12-23T03:12:28.259Z,9.00
2018-12-23T03:14:56.354Z,9.00
2018-12-23T03:17:24.423Z,9.00
2018-12-23T03:19:52.495Z,9.00
2018-12-23T03:22:20.579Z,8.80
2018-12-23T03:24:48.650Z,8.80
2018-12-23T03:27:16.738Z,8.80
2018-12-23T03:29:44.889Z,8.90
2018-12-23T03:32:12.968Z,8.90
2018-12-23T03:34:41.038Z,8.90
2018-12-23T03:37:09.123Z,8.80
2018-12-23T03:39:37.746Z,8.90
2018-12-23T03:42:05.835Z,8.80
2018-12-23T03:44:34.031Z,8.80
2018-12-23T03:47:02.105Z,8.70
2018-12-23T03:49:30.191Z,8.70
2018-12-23T03:51:58.301Z,8.80
2018-12-23T03:54:26.675Z,8.70
2018-12-23T03:56:54.750Z,8.70
2018-12-23T03:59:22.835Z,8.70
2018-12-23T04:01:50.916Z,8.70
2018-12-23T04:04:19.043Z,8.70
2018-12-23T04:06:48.243Z,8.70
2018-12-23T04:09:16.326Z,8.80
2018-12-23T04:11:45.338Z,8.80
2018-12-23T04:14:13.427Z,8.70
2018-12-23T04:16:41.484Z,8.70
2018-12-23T04:19:09.588Z,8.70
2018-12-23T04:21:38.734Z,8.60
2018-12-23T04:24:06.791Z,8.60
2018-12-23T04:26:34.861Z,8.60
2018-12-23T04:29:03.062Z,8.60
2018-12-23T04:31:31.135Z,8.60
2018-12-23T04:33:59.393Z,8.60
2018-12-23T04:36:34.079Z,8.60
2018-12-23T04:38:57.522Z,8.60
2018-12-23T04:41:25.646Z,8.60
2018-12-23T04:43:53.734Z,8.70
2018-12-23T04:46:21.831Z,8.70
2018-12-23T04:48:49.902Z,8.70
2018-12-23T04:51:17.985Z,8.70
2018-12-23T04:53:46.063Z,8.80
2018-12-23T04:56:14.162Z,8.70
2018-12-23T04:58:42.247Z,8.70
2018-12-23T05:01:10.393Z,8.80
2018-12-23T05:03:42.842Z,8.80
2018-12-23T05:06:08.494Z,8.80
2018-12-23T05:08:36.588Z,8.90
2018-12-23T05:11:04.653Z,9.00
2018-12-23T05:13:34.383Z,8.90
2018-12-23T05:16:02.619Z,8.90
2018-12-23T05:18:30.715Z,8.90
2018-12-23T05:20:58.819Z,8.90
2018-12-23T05:23:26.887Z,8.80
2018-12-23T05:25:54.960Z,8.80
2018-12-23T05:28:23.054Z,8.80
2018-12-23T05:30:51.126Z,8.70
2018-12-23T05:33:19.249Z,8.60
2018-12-23T05:35:47.348Z,8.70
2018-12-23T05:38:15.389Z,8.70
2018-12-23T05:40:43.490Z,8.60
2018-12-23T05:43:11.556Z,8.70
2018-12-23T05:45:39.727Z,8.80
2018-12-23T05:48:07.794Z,8.90
2018-12-23T05:50:36.046Z,8.90
2018-12-23T05:53:04.094Z,8.90
2018-12-23T05:55:31.750Z,8.90
2018-12-23T05:57:59.898Z,8.90
2018-12-23T06:00:27.972Z,8.90
2018-12-23T06:02:56.063Z,9.00
2018-12-23T06:05:24.129Z,9.00
2018-12-23T06:07:52.224Z,8.90
2018-12-23T06:10:20.294Z,8.90
2018-12-23T06:12:48.402Z,8.90
2018-12-23T06:15:16.469Z,8.80
2018-12-23T06:17:44.551Z,8.80
2018-12-23T06:20:12.650Z,8.80
2018-12-23T06:22:40.753Z,9.00
2018-12-23T06:25:08.895Z,9.00
2018-12-23T06:27:37.089Z,9.00
2018-12-23T06:30:05.871Z,9.00
2018-12-23T06:32:33.989Z,9.00
2018-12-23T06:35:02.038Z,9.10
2018-12-23T06:37:30.132Z,9.00
2018-12-23T06:39:58.224Z,9.00
2018-12-23T06:42:26.295Z,9.00
2018-12-23T06:44:54.374Z,9.00
2018-12-23T06:47:22.458Z,9.10
2018-12-23T06:49:50.563Z,9.10
2018-12-23T06:52:18.628Z,9.00
2018-12-23T06:54:46.728Z,9.00
2018-12-23T06:57:14.800Z,9.00
2018-12-23T06:59:42.875Z,9.00
2018-12-23T07:02:10.959Z,8.90
2018-12-23T07:04:39.076Z,8.90
2018-12-23T07:07:07.138Z,8.90
2018-12-23T07:09:35.220Z,8.90
2018-12-23T07:12:03.300Z,9.00
2018-12-23T07:14:31.398Z,9.00
2018-12-23T07:16:59.810Z,9.00
2018-12-23T07:19:27.895Z,9.00
2018-12-23T07:21:55.979Z,9.00
2018-12-23T07:24:24.094Z,8.90
2018-12-23T07:26:52.216Z,8.90
2018-12-23T07:29:20.301Z,8.90
2018-12-23T07:31:48.398Z,8.90
2018-12-23T07:34:16.514Z,8.90
2018-12-23T07:36:49.515Z,8.90
2018-12-23T07:39:14.702Z,8.90
2018-12-23T07:41:42.782Z,8.90
2018-12-23T07:44:10.879Z,8.90
2018-12-23T07:46:38.949Z,8.90
2018-12-23T07:49:07.089Z,9.00
2018-12-23T07:51:35.167Z,9.10
2018-12-23T07:54:03.266Z,9.10
2018-12-23T07:56:31.353Z,9.10
2018-12-23T07:58:59.434Z,9.20
2018-12-23T08:01:27.528Z,9.10
2018-12-23T08:03:55.647Z,9.10
2018-12-23T08:06:23.723Z,9.10
2018-12-23T08:08:51.818Z,9.10
2018-12-23T08:11:19.911Z,9.10
2018-12-23T08:13:47.985Z,9.20
2018-12-23T08:16:16.099Z,9.20
2018-12-23T08:18:44.173Z,9.30
2018-12-23T08:21:12.255Z,9.40
2018-12-23T08:23:40.356Z,9.40
2018-12-23T08:26:08.423Z,9.30
2018-12-23T08:28:36.809Z,9.40
2018-12-23T08:31:04.875Z,9.40
2018-12-23T08:33:33.290Z,9.30
2018-12-23T08:36:01.359Z,9.20
2018-12-23T08:38:29.443Z,9.30
2018-12-23T08:40:57.515Z,9.30
2018-12-23T08:43:25.597Z,9.40
2018-12-23T08:45:53.686Z,9.30
2018-12-23T08:48:21.762Z,9.30
2018-12-23T08:50:49.871Z,9.30
2018-12-23T08:53:17.950Z,9.30
2018-12-23T08:55:46.091Z,9.20
2018-12-23T08:58:14.191Z,9.20
2018-12-23T09:00:42.270Z,9.30
2018-12-23T09:03:18.619Z,9.30
2018-12-23T09:05:40.458Z,9.30
2018-12-23T09:08:08.587Z,9.50
2018-12-23T09:10:36.857Z,9.50
2018-12-23T09:13:04.894Z,9.60
2018-12-23T09:15:32.997Z,9.50
2018-12-23T09:18:01.108Z,9.50
2018-12-23T09:20:29.187Z,9.50
2018-12-23T09:22:57.266Z,9.60
2018-12-23T09:25:25.370Z,9.80
2018-12-23T09:27:53.490Z,9.90
2018-12-23T09:30:21.571Z,9.90
2018-12-23T09:32:49.694Z,9.80
2018-12-23T09:35:18.115Z,9.80
2018-12-23T09:37:46.183Z,9.80
2018-12-23T09:40:14.238Z,9.80
2018-12-23T09:42:42.364Z,9.90
2018-12-23T09:45:10.442Z,9.90
2018-12-23T09:47:38.541Z,9.90
2018-12-23T09:50:06.807Z,9.90
2018-12-23T09:52:34.894Z,10.00
2018-12-23T09:55:03.215Z,10.10
2018-12-23T09:57:31.306Z,10.20
2018-12-23T09:59:59.358Z,10.20
2018-12-23T10:02:27.486Z,10.30
2018-12-23T10:04:55.583Z,10.40
2018-12-23T10:07:23.659Z,10.40
2018-12-23T10:09:51.746Z,10.30
2018-12-23T10:12:19.851Z,10.30
2018-12-23T10:14:47.938Z,10.20
2018-12-23T10:17:16.037Z,10.10
2018-12-23T10:19:44.190Z,10.00
2018-12-23T10:22:12.242Z,10.10
2018-12-23T10:24:40.363Z,10.10
2018-12-23T10:27:08.434Z,10.10
2018-12-23T10:29:36.852Z,10.00
2018-12-23T10:32:04.973Z,10.00
2018-12-23T10:34:33.267Z,9.90
2018-12-23T10:37:01.411Z,9.90
2018-12-23T10:39:29.487Z,9.80
2018-12-23T10:41:57.554Z,9.90
2018-12-23T10:44:25.670Z,9.90
2018-12-23T10:46:53.775Z,9.90
2018-12-23T10:49:21.843Z,10.10
2018-12-23T10:51:49.944Z,10.10
2018-12-23T10:54:18.075Z,10.20
2018-12-23T10:56:46.188Z,10.30
2018-12-23T10:59:14.268Z,10.30
2018-12-23T11:01:42.397Z,10.20
2018-12-23T11:04:10.514Z,10.20
2018-12-23T11:06:38.567Z,10.30
2018-12-23T11:09:06.695Z,10.20
2018-12-23T11:11:34.805Z,10.20
2018-12-23T11:14:02.969Z,10.20
2018-12-23T11:16:31.679Z,10.10
2018-12-23T11:18:59.781Z,10.10
2018-12-23T11:21:27.870Z,10.20
2018-12-23T11:23:56.000Z,10.10
2018-12-23T11:26:26.394Z,10.10
2018-12-23T11:28:54.481Z,10.10
2018-12-23T11:31:22.751Z,10.10
2018-12-23T11:33:51.022Z,10.00
2018-12-23T11:36:19.299Z,10.00
2018-12-23T11:38:47.469Z,9.90
2018-12-23T11:41:15.551Z,9.80
2018-12-23T11:43:43.682Z,9.70
2018-12-23T11:46:11.786Z,9.60
2018-12-23T11:48:39.863Z,9.60
2018-12-23T11:51:07.959Z,9.50
2018-12-23T11:53:36.048Z,9.40
2018-12-23T11:56:04.511Z,9.30
2018-12-23T11:58:32.563Z,9.30
2018-12-23T12:01:00.653Z,9.10
2018-12-23T12:03:28.740Z,9.40
2018-12-23T12:05:56.852Z,9.60
2018-12-23T12:08:24.947Z,9.60
2018-12-23T12:10:53.058Z,9.60
2018-12-23T12:13:21.150Z,9.60
2018-12-23T12:15:49.252Z,9.60
2018-12-23T12:18:17.362Z,9.60
2018-12-23T12:20:45.439Z,9.50
2018-12-23T12:23:13.559Z,9.50
2018-12-23T12:25:41.656Z,9.50
2018-12-23T12:28:09.758Z,9.50
2018-12-23T12:30:37.977Z,9.50
2018-12-23T12:33:06.123Z,9.40
2018-12-23T12:35:34.166Z,9.40
2018-12-23T12:38:02.248Z,9.40
2018-12-23T12:40:30.360Z,9.40
2018-12-23T12:42:58.547Z,9.40
2018-12-23T12:45:26.663Z,9.30
2018-12-23T12:47:54.725Z,9.30
2018-12-23T12:50:22.813Z,9.30
2018-12-23T12:52:52.629Z,9.30
2018-12-23T12:55:20.842Z,9.30
2018-12-23T12:57:49.076Z,9.20
2018-12-23T13:00:17.162Z,9.20
2018-12-23T13:02:45.379Z,9.20
2018-12-23T13:05:13.445Z,9.30
2018-12-23T13:07:41.540Z,9.40
2018-12-23T13:10:09.655Z,9.40
2018-12-23T13:12:37.783Z,9.50
2018-12-23T13:15:05.972Z,9.50
2018-12-23T13:17:34.032Z,9.50
2018-12-23T13:20:02.124Z,9.50
2018-12-23T13:22:30.232Z,9.60
2018-12-23T13:24:58.332Z,9.60
2018-12-23T13:27:26.445Z,9.50
2018-12-23T13:29:54.543Z,9.50
2018-12-23T13:32:22.622Z,9.50
2018-12-23T13:34:50.759Z,9.50
2018-12-23T13:37:18.853Z,9.30
2018-12-23T13:39:47.083Z,9.30
2018-12-23T13:42:19.171Z,9.20
2018-12-23T13:44:54.797Z,9.20
2018-12-23T13:47:47.537Z,9.10
2018-12-23T13:54:35.579Z,8.90
2018-12-23T13:57:17.039Z,8.70
2018-12-23T13:59:58.299Z,8.70
2018-12-23T14:02:40.103Z,8.70
2018-12-23T14:05:21.526Z,8.60
2018-12-23T14:08:03.293Z,8.60
2018-12-23T14:10:45.199Z,8.60
2018-12-23T14:13:26.649Z,8.70
2018-12-23T14:16:08.406Z,8.80
2018-12-23T14:18:49.948Z,8.80
2018-12-23T14:21:31.229Z,8.80
2018-12-23T14:24:13.040Z,8.80
2018-12-23T14:26:54.661Z,8.90
2018-12-23T14:29:36.785Z,9.00
2018-12-23T14:32:18.159Z,9.00
2018-12-23T14:34:59.468Z,9.10
2018-12-23T14:37:40.866Z,9.20
2018-12-23T14:40:22.613Z,9.20
2018-12-23T14:43:04.398Z,9.30
2018-12-23T14:45:45.930Z,9.40
2018-12-23T14:48:27.882Z,9.40
2018-12-23T14:51:12.409Z,9.50
2018-12-23T14:53:54.136Z,9.50
2018-12-23T14:56:35.952Z,9.50
2018-12-23T14:59:17.796Z,9.50
2018-12-23T15:01:59.457Z,9.50
2018-12-23T15:04:41.092Z,9.60
2018-12-23T15:07:23.215Z,9.60
2018-12-23T15:10:04.840Z,9.60
2018-12-23T15:12:46.074Z,9.60
2018-12-23T15:15:27.767Z,9.60
2018-12-23T15:18:09.990Z,9.60
2018-12-23T15:20:51.544Z,9.60
2018-12-23T15:23:32.917Z,9.60
2018-12-23T15:26:14.870Z,9.60
2018-12-23T15:28:56.587Z,9.60
2018-12-23T15:34:46.399Z,9.50
2018-12-23T15:37:28.027Z,9.60
2018-12-23T15:47:07.096Z,9.50
2018-12-23T15:49:49.034Z,9.50
2018-12-23T15:52:30.502Z,9.50
2018-12-23T15:55:12.455Z,9.50
2018-12-23T15:57:53.900Z,9.50
2018-12-23T16:00:38.580Z,9.50
2018-12-23T16:03:20.459Z,9.50
2018-12-23T16:06:01.628Z,9.40
2018-12-23T16:08:43.520Z,9.40
2018-12-23T16:11:25.100Z,9.40
2018-12-23T16:14:07.054Z,9.40
2018-12-23T16:16:48.807Z,9.40
2018-12-23T16:19:30.807Z,9.40
2018-12-23T16:22:12.845Z,9.40
2018-12-23T16:24:54.819Z,9.40
2018-12-23T16:27:36.465Z,9.40
2018-12-23T16:30:17.987Z,9.40
2018-12-23T16:33:00.092Z,9.40
2018-12-23T16:35:41.834Z,9.40
2018-12-23T16:38:23.741Z,9.40
2018-12-23T16:41:05.328Z,9.50
2018-12-23T16:43:47.168Z,9.50
2018-12-23T16:46:28.805Z,9.50
2018-12-23T16:49:10.680Z,9.50
2018-12-23T16:51:52.670Z,9.50
2018-12-23T16:54:34.605Z,9.40
2018-12-23T16:57:16.087Z,9.50
2018-12-23T16:59:57.752Z,9.50
2018-12-23T17:02:39.408Z,9.50
2018-12-23T17:05:20.893Z,9.50
2018-12-23T17:08:02.950Z,9.50
2018-12-23T17:10:44.510Z,9.50
2018-12-23T17:16:34.333Z,9.50
2018-12-23T17:19:15.729Z,9.50
2018-12-23T17:21:57.480Z,9.50
2018-12-23T17:24:39.026Z,9.40
2018-12-23T17:27:20.716Z,9.40
2018-12-23T17:30:02.270Z,9.40
2018-12-23T17:32:44.327Z,9.30
2018-12-23T17:35:25.962Z,9.30
2018-12-23T17:38:07.834Z,9.40
2018-12-23T17:40:49.434Z,9.40
2018-12-23T17:43:31.049Z,9.30
2018-12-23T17:46:12.867Z,9.30
2018-12-23T17:48:54.143Z,9.30
2018-12-23T17:51:36.244Z,9.40
2018-12-23T17:54:17.466Z,9.40
2018-12-23T17:56:59.362Z,9.40
2018-12-23T17:59:40.604Z,9.40
2018-12-23T18:02:22.587Z,9.40
2018-12-23T18:05:04.340Z,9.30
2018-12-23T18:07:45.784Z,9.30
2018-12-23T18:10:27.463Z,9.30
2018-12-23T18:13:09.314Z,9.30
2018-12-23T18:15:50.784Z,9.30
2018-12-23T18:18:32.260Z,9.20
2018-12-23T18:21:14.097Z,9.20
2018-12-23T18:23:55.854Z,9.10
2018-12-23T18:26:44.921Z,9.20
2018-12-23T18:29:21.348Z,9.10
2018-12-23T18:32:02.863Z,9.10
2018-12-23T18:34:44.031Z,9.10
2018-12-23T18:37:25.488Z,9.20
2018-12-23T18:40:07.337Z,9.20
2018-12-23T18:42:48.827Z,9.20
2018-12-23T18:45:30.532Z,9.20
2018-12-23T18:48:12.484Z,9.20
2018-12-23T18:50:54.092Z,9.20
2018-12-23T18:53:38.790Z,9.20
2018-12-23T18:56:19.981Z,9.10
2018-12-23T18:59:01.810Z,9.10
2018-12-23T19:01:43.652Z,9.20
2018-12-23T19:04:24.833Z,9.20
2018-12-23T19:07:06.413Z,9.30
2018-12-23T19:09:48.069Z,9.50
2018-12-23T19:12:29.294Z,9.50
2018-12-23T19:15:11.169Z,9.60
2018-12-23T19:17:52.569Z,9.70
2018-12-23T19:20:33.952Z,9.70
2018-12-23T19:23:15.308Z,9.70
2018-12-23T19:25:56.662Z,9.80
2018-12-23T19:28:38.124Z,9.80
2018-12-23T19:31:19.700Z,9.80
2018-12-23T19:34:01.392Z,9.90
2018-12-23T19:36:43.161Z,9.90
2018-12-23T19:39:24.649Z,9.90
2018-12-23T19:42:06.593Z,9.80
2018-12-23T19:44:48.008Z,9.70
2018-12-23T19:47:29.804Z,9.70
2018-12-23T19:50:11.532Z,9.80
2018-12-23T19:52:53.210Z,9.70
2018-12-23T19:55:34.897Z,9.70
2018-12-23T19:58:16.815Z,9.60
2018-12-23T20:00:58.150Z,9.60
2018-12-23T20:03:40.251Z,9.60
2018-12-23T20:06:22.217Z,9.60
2018-12-23T20:09:04.596Z,9.60
2018-12-23T20:11:46.116Z,9.60
2018-12-23T20:14:27.920Z,9.60
2018-12-23T20:17:09.676Z,9.40
2018-12-23T20:23:10.693Z,9.30
2018-12-23T20:25:52.209Z,9.20
2018-12-23T20:28:33.427Z,9.10
2018-12-23T20:31:15.093Z,9.10
2018-12-23T20:33:57.211Z,9.00
2018-12-23T20:36:38.678Z,9.00
2018-12-23T20:39:20.633Z,8.90
2018-12-23T20:42:02.717Z,8.80
2018-12-23T20:44:44.339Z,8.90
2018-12-23T20:47:25.847Z,8.90
2018-12-23T20:50:07.499Z,8.90
2018-12-23T20:52:49.591Z,9.00
2018-12-23T20:55:31.608Z,9.00
2018-12-23T20:58:13.218Z,9.10
2018-12-23T21:00:54.775Z,9.10
2018-12-23T21:03:36.058Z,9.20
2018-12-23T21:06:18.136Z,9.20
2018-12-23T21:09:00.103Z,9.20
2018-12-23T21:11:41.612Z,9.10
2018-12-23T21:14:26.803Z,9.20
2018-12-23T21:17:08.312Z,9.20
2018-12-23T21:19:49.802Z,9.20
2018-12-23T21:22:31.852Z,9.20
2018-12-23T21:25:13.345Z,9.20
2018-12-23T21:27:54.567Z,9.20
2018-12-23T21:30:36.564Z,9.30
2018-12-23T21:33:17.849Z,9.20
2018-12-23T21:35:59.199Z,9.30
2018-12-23T21:38:40.960Z,9.30
2018-12-23T21:41:24.444Z,9.30
2018-12-23T21:44:06.106Z,9.30
2018-12-23T21:46:47.593Z,9.30
2018-12-23T21:49:28.950Z,9.30
2018-12-23T21:52:10.317Z,9.40
2018-12-23T21:54:52.089Z,9.40
2018-12-23T21:57:34.018Z,9.40
2018-12-23T22:00:15.212Z,9.30
2018-12-23T22:02:56.925Z,9.30
2018-12-23T22:05:38.421Z,9.30
2018-12-23T22:08:20.427Z,9.30
2018-12-23T22:11:02.059Z,9.40
2018-12-23T22:13:44.224Z,9.30
2018-12-23T22:16:25.628Z,9.30
2018-12-23T22:19:10.175Z,9.30
2018-12-23T22:21:51.952Z,9.20
2018-12-23T22:24:33.389Z,9.20
2018-12-23T22:27:15.052Z,9.20
2018-12-23T22:29:56.721Z,9.10
2018-12-23T22:32:38.419Z,9.10
2018-12-23T22:35:19.957Z,9.10
2018-12-23T22:38:01.736Z,9.10
2018-12-23T22:40:43.732Z,9.10
2018-12-23T22:43:25.723Z,9.00
2018-12-23T22:46:07.689Z,9.00
2018-12-23T22:48:49.396Z,9.00
2018-12-23T22:51:30.906Z,9.00
2018-12-23T22:54:12.337Z,9.00
2018-12-23T22:56:54.012Z,8.90
2018-12-23T22:59:36.064Z,8.80
2018-12-23T23:02:17.805Z,8.80
2018-12-23T23:04:59.204Z,8.80
2018-12-23T23:07:41.064Z,8.80
2018-12-23T23:10:22.653Z,8.80
2018-12-23T23:13:04.285Z,8.80
2018-12-23T23:15:45.962Z,8.70
2018-12-23T23:18:27.748Z,8.80
2018-12-23T23:21:09.509Z,8.70
2018-12-23T23:23:51.286Z,8.70
2018-12-23T23:26:32.947Z,8.70
2018-12-23T23:29:14.978Z,8.70
2018-12-23T23:31:56.358Z,8.70
2018-12-23T23:34:37.845Z,8.70
2018-12-23T23:37:19.399Z,8.50
2018-12-23T23:40:01.073Z,8.40
2018-12-23T23:42:42.256Z,8.40
2018-12-23T23:45:27.518Z,8.40
2018-12-23T23:48:08.807Z,8.40
2018-12-23T23:50:52.553Z,8.40
2018-12-23T23:53:34.721Z,8.40
2018-12-23T23:56:15.827Z,8.40
2018-12-23T23:58:58.031Z,8.50
